Search for airport 
image banner adimage banner adimage banner ad
image banner ad

L36 - Rio Linda

Located in Rio Linda, United States

ICAO - L36, IATA -

Data provided by Airmate  

General information

Coordinates: N38°40'30" W121°26'44"
Elevation is 46 feet MSL.
Magnetic variation is 16° East
View others Airports in California

Operational data

Special qualification required
Current time UTC:
Current local time:
Weather at : KMCC - Mc Clellan Airfield ( 4 km )
METAR: KMCC 150815Z AUTO 15009KT 10SM CLR 17/09 A3002 RMK AO2
TAF: KMCC 150532Z 1506/1606 17006KT P6SM SKC FM150800 14007KT P6SM SKC FM151800 31006KT P6SM SKC
View NOTAMs / SUP AIP / TFR affecting this airport [VIEW]
Communications frequencies: [VIEW]

Runways:

RWY identifierQFULength (ft)Width (ft)SurfaceLDA (ft)
17262542ASPH
35262542ASPH

Airport contact information

Address: Rio Linda United States

Satellite view of L36